Time;durP1;ratioP1;P1;durP2;ratioP2;P2;SDS_P1;SDS_P2;PMS_P1;PMS_P2;Temp;Humidity;BMP_temperature;BMP_pressure;BME280_temperature;BME280_humidity;BME280_pressure;Samples;Min_cycle;Max_cycle;Signal;HPM_P1;HPM_P2
2022/01/07 00:01:03;;;;;;;12.65;6.70;;;0.90;80.70;;;;;;7375103;19;20131;-47
2022/01/07 00:03:36;;;;;;;10.23;6.57;;;1.00;80.20;;;;;;7374361;19;20127;-47
2022/01/07 00:06:06;;;;;;;8.48;6.15;;;1.10;79.90;;;;;;7374235;19;20507;-47
2022/01/07 00:08:36;;;;;;;10.20;6.65;;;1.20;79.50;;;;;;7375196;19;20127;-47
2022/01/07 00:11:06;;;;;;;9.80;6.10;;;1.10;79.40;;;;;;7364878;19;20167;-48
2022/01/07 00:13:35;;;;;;;8.60;6.32;;;1.20;79.00;;;;;;7367383;19;20132;-48
2022/01/07 00:16:08;;;;;;;13.10;6.43;;;1.20;78.80;;;;;;7371911;19;20143;-47
2022/01/07 00:18:43;;;;;;;15.63;6.85;;;1.20;78.50;;;;;;7364994;19;20148;-47
2022/01/07 00:21:13;;;;;;;15.45;6.68;;;1.20;78.40;;;;;;7364788;19;20708;-43
2022/01/07 00:23:43;;;;;;;8.43;5.72;;;1.10;78.20;;;;;;7361987;19;20138;-44
2022/01/07 00:26:16;;;;;;;9.75;5.20;;;1.10;78.90;;;;;;7362753;19;20128;-44
2022/01/07 00:28:46;;;;;;;9.48;6.55;;;1.20;78.80;;;;;;7360933;19;20120;-44
2022/01/07 00:31:18;;;;;;;16.73;6.15;;;1.20;78.10;;;;;;7365040;19;20139;-44
2022/01/07 00:33:50;;;;;;;11.95;6.63;;;1.20;78.20;;;;;;7368866;19;20897;-44
2022/01/07 00:36:20;;;;;;;11.82;5.85;;;1.30;78.00;;;;;;7361569;19;20587;-43
2022/01/07 00:38:49;;;;;;;13.55;5.88;;;1.20;77.40;;;;;;7371907;19;20615;-44
2022/01/07 00:41:19;;;;;;;12.75;6.82;;;1.00;77.50;;;;;;7366812;19;20976;-44
2022/01/07 00:43:51;;;;;;;12.45;6.55;;;0.90;78.30;;;;;;7362585;19;20143;-44
2022/01/07 00:46:21;;;;;;;11.65;6.05;;;0.80;78.70;;;;;;7362929;19;20538;-44
2022/01/07 00:48:53;;;;;;;12.10;6.50;;;0.70;79.00;;;;;;7365643;19;20158;-44
2022/01/07 00:51:23;;;;;;;8.55;5.28;;;0.70;79.60;;;;;;7371577;19;20138;-50
2022/01/07 00:53:52;;;;;;;8.60;5.60;;;0.70;79.40;;;;;;7365459;19;20134;-50
2022/01/07 00:56:22;;;;;;;12.77;6.90;;;0.70;79.60;;;;;;7359076;19;20183;-48
2022/01/07 00:58:51;;;;;;;13.30;6.80;;;0.80;79.30;;;;;;7365419;19;20629;-50
2022/01/07 01:01:21;;;;;;;9.48;6.10;;;0.80;78.90;;;;;;7362440;19;20130;-48
2022/01/07 01:03:53;;;;;;;8.95;5.50;;;0.80;78.50;;;;;;7369457;19;20231;-50
2022/01/07 01:06:25;;;;;;;10.88;5.57;;;0.90;78.30;;;;;;7370627;19;20127;-49
2022/01/07 01:08:54;;;;;;;8.95;5.55;;;1.00;78.10;;;;;;7368945;19;20600;-48
2022/01/07 01:11:24;;;;;;;10.50;5.93;;;1.00;77.50;;;;;;7356674;19;20199;-48
2022/01/07 01:13:53;;;;;;;12.20;4.90;;;1.00;77.50;;;;;;7363364;19;20159;-48
2022/01/07 01:16:23;;;;;;;10.02;6.38;;;0.90;77.40;;;;;;7364946;19;20123;-49
2022/01/07 01:18:55;;;;;;;10.73;5.50;;;1.00;77.50;;;;;;7369645;19;20191;-48
2022/01/07 01:21:25;;;;;;;10.88;5.90;;;1.00;77.60;;;;;;7373182;19;20132;-49
2022/01/07 01:23:57;;;;;;;11.18;6.03;;;1.00;77.10;;;;;;7365337;19;20132;-50
2022/01/07 01:26:26;;;;;;;10.65;5.65;;;1.00;77.30;;;;;;7375513;19;20486;-49
2022/01/07 01:28:56;;;;;;;13.38;6.40;;;1.00;77.10;;;;;;7371862;19;20155;-48
2022/01/07 01:31:25;;;;;;;7.97;4.72;;;0.90;77.90;;;;;;7371965;19;20604;-44
2022/01/07 01:33:57;;;;;;;6.93;5.45;;;0.70;77.90;;;;;;7365248;19;20135;-44
2022/01/07 01:36:27;;;;;;;11.57;5.95;;;0.60;78.50;;;;;;7372800;19;20128;-44
2022/01/07 01:38:57;;;;;;;10.35;5.43;;;0.60;79.00;;;;;;7371078;19;20613;-45
2022/01/07 01:41:26;;;;;;;12.70;5.63;;;0.50;79.10;;;;;;7372537;19;20563;-44
2022/01/07 01:43:56;;;;;;;9.32;5.32;;;0.50;79.40;;;;;;7368784;19;20150;-44
2022/01/07 01:46:26;;;;;;;9.13;4.97;;;0.50;79.40;;;;;;7377793;19;20135;-44
2022/01/07 01:48:58;;;;;;;10.63;5.05;;;0.60;78.90;;;;;;7373465;19;20635;-44
2022/01/07 01:51:28;;;;;;;10.40;5.95;;;0.70;79.00;;;;;;7375814;19;20135;-44
2022/01/07 01:53:58;;;;;;;8.75;5.20;;;0.80;78.30;;;;;;7370912;19;20142;-44
2022/01/07 01:56:27;;;;;;;9.63;5.93;;;0.90;77.90;;;;;;7378660;19;20124;-44
2022/01/07 01:58:57;;;;;;;9.55;5.63;;;0.90;77.40;;;;;;7375694;19;20350;-44
2022/01/07 02:01:27;;;;;;;8.55;5.45;;;0.90;77.20;;;;;;7368951;19;20135;-48
2022/01/07 02:03:59;;;;;;;10.18;4.93;;;0.90;77.50;;;;;;7364142;19;20142;-49
2022/01/07 02:06:29;;;;;;;5.40;4.70;;;1.00;77.20;;;;;;7377062;19;20491;-48
2022/01/07 02:09:01;;;;;;;9.10;5.60;;;1.10;76.80;;;;;;7375267;19;20123;-48
2022/01/07 02:11:31;;;;;;;5.70;4.63;;;0.90;76.00;;;;;;7364292;19;20159;-48
2022/01/07 02:14:00;;;;;;;9.88;6.07;;;0.80;76.50;;;;;;7371924;19;20527;-47
2022/01/07 02:16:31;;;;;;;9.73;6.05;;;0.70;77.50;;;;;;7375653;19;20135;-48
2022/01/07 02:19:03;;;;;;;11.55;6.15;;;0.80;77.40;;;;;;7373876;19;20138;-48
2022/01/07 02:21:38;;;;;;;10.65;7.22;;;0.70;77.90;;;;;;7369570;19;20733;-48
2022/01/07 02:24:09;;;;;;;12.60;6.20;;;0.80;78.00;;;;;;7369054;19;20131;-48
2022/01/07 02:26:39;;;;;;;8.48;5.97;;;0.80;77.50;;;;;;7376139;19;20139;-49
2022/01/07 02:29:09;;;;;;;12.00;5.88;;;0.80;77.10;;;;;;7374067;19;20514;-48
2022/01/07 02:31:39;;;;;;;11.02;7.15;;;0.90;77.40;;;;;;7372995;19;20124;-44
2022/01/07 02:34:08;;;;;;;12.90;6.25;;;0.80;76.90;;;;;;7363541;19;20135;-44
2022/01/07 02:36:40;;;;;;;11.35;6.30;;;0.80;77.30;;;;;;7373088;19;20513;-44
2022/01/07 02:39:10;;;;;;;8.25;6.15;;;0.90;77.40;;;;;;7365626;19;20124;-44
2022/01/07 02:41:40;;;;;;;14.32;6.65;;;0.80;76.90;;;;;;7377039;19;20489;-45
2022/01/07 02:44:09;;;;;;;12.65;6.47;;;0.90;77.00;;;;;;7373632;19;20177;-44
2022/01/07 02:46:39;;;;;;;11.05;6.55;;;0.90;76.70;;;;;;7368781;19;20159;-44
2022/01/07 02:49:13;;;;;;;7.88;5.40;;;0.90;77.10;;;;;;7374428;19;20134;-44
2022/01/07 02:51:46;;;;;;;10.35;6.28;;;0.90;77.10;;;;;;7371255;19;20139;-44
2022/01/07 02:54:16;;;;;;;9.88;6.22;;;0.90;76.90;;;;;;7365728;19;20135;-44
2022/01/07 02:56:46;;;;;;;9.50;5.95;;;1.00;76.60;;;;;;7372480;19;20147;-44
2022/01/07 02:59:17;;;;;;;10.38;6.57;;;1.00;76.30;;;;;;7367986;19;20132;-44
2022/01/07 03:01:47;;;;;;;10.23;5.93;;;0.90;76.10;;;;;;7372349;19;20132;-43
2022/01/07 03:04:19;;;;;;;9.10;5.55;;;0.90;76.70;;;;;;7375613;19;20120;-44
2022/01/07 03:06:54;;;;;;;12.77;6.03;;;1.00;77.20;;;;;;7371897;19;20124;-44
2022/01/07 03:09:24;;;;;;;9.85;6.22;;;0.90;76.00;;;;;;7372264;19;20134;-44
2022/01/07 03:11:53;;;;;;;11.15;5.40;;;0.90;75.90;;;;;;7363662;19;20157;-44
2022/01/07 03:14:23;;;;;;;6.65;4.43;;;0.90;75.90;;;;;;7360631;19;20164;-44
2022/01/07 03:16:53;;;;;;;11.13;5.53;;;1.00;75.60;;;;;;7373194;19;20135;-44
2022/01/07 03:19:23;;;;;;;10.80;5.20;;;1.00;73.90;;;;;;7373298;19;20119;-44
2022/01/07 03:21:57;;;;;;;7.43;4.60;;;1.00;73.30;;;;;;7371731;19;20595;-44
2022/01/07 03:24:26;;;;;;;7.78;4.78;;;1.00;72.40;;;;;;7372540;19;20123;-43
2022/01/07 03:26:56;;;;;;;7.55;4.57;;;1.00;72.30;;;;;;7371220;19;20591;-44
2022/01/07 03:29:27;;;;;;;10.38;4.82;;;1.00;72.20;;;;;;7371267;19;20119;-44
2022/01/07 03:31:56;;;;;;;8.65;5.35;;;1.00;72.50;;;;;;7372489;19;20134;-48
2022/01/07 03:34:26;;;;;;;8.55;5.30;;;1.00;71.60;;;;;;7362326;19;20258;-48
2022/01/07 03:36:58;;;;;;;8.60;4.97;;;1.00;70.90;;;;;;7372829;19;20135;-48
2022/01/07 03:39:28;;;;;;;8.30;4.57;;;0.90;71.20;;;;;;7373659;19;20515;-48
2022/01/07 03:41:57;;;;;;;8.77;4.65;;;0.90;71.50;;;;;;7372128;19;20168;-49
2022/01/07 03:44:26;;;;;;;8.60;4.35;;;0.90;70.80;;;;;;7365786;19;20616;-48
2022/01/07 03:46:56;;;;;;;8.70;5.45;;;0.90;71.00;;;;;;7361865;19;20128;-47
2022/01/07 03:49:26;;;;;;;9.77;3.95;;;1.00;71.50;;;;;;7367873;19;20148;-47
2022/01/07 03:52:00;;;;;;;10.80;4.25;;;1.00;70.70;;;;;;7370887;19;20135;-48
2022/01/07 03:54:30;;;;;;;7.63;4.72;;;1.00;70.00;;;;;;7369864;19;20128;-47
2022/01/07 03:56:59;;;;;;;8.90;5.03;;;1.00;70.20;;;;;;7368068;19;20158;-48
2022/01/07 03:59:32;;;;;;;6.43;4.63;;;1.00;69.30;;;;;;7367948;19;20135;-49
2022/01/07 04:02:01;;;;;;;6.53;4.20;;;1.00;69.50;;;;;;7360066;19;20800;-44
2022/01/07 04:04:31;;;;;;;6.30;4.00;;;0.90;70.00;;;;;;7364966;19;20128;-44
2022/01/07 04:07:03;;;;;;;8.40;4.60;;;1.00;69.90;;;;;;7369159;19;20513;-44
2022/01/07 04:09:33;;;;;;;6.43;3.88;;;1.00;69.80;;;;;;7369838;19;20193;-44
2022/01/07 04:12:02;;;;;;;8.32;4.55;;;1.00;69.50;;;;;;7355865;19;20162;-44
2022/01/07 04:14:32;;;;;;;7.97;4.78;;;1.10;70.70;;;;;;7364508;19;20127;-44
2022/01/07 04:17:03;;;;;;;8.68;5.25;;;1.10;69.20;;;;;;7364900;19;20192;-44
2022/01/07 04:19:33;;;;;;;7.30;4.18;;;1.20;69.10;;;;;;7368800;19;20973;-44
2022/01/07 04:22:06;;;;;;;9.55;4.05;;;1.20;68.40;;;;;;7367878;19;20123;-43
2022/01/07 04:24:35;;;;;;;8.48;4.03;;;1.20;68.60;;;;;;7375453;19;20131;-43
2022/01/07 04:27:05;;;;;;;10.40;4.35;;;1.10;68.10;;;;;;7359224;19;20127;-44
2022/01/07 04:29:35;;;;;;;6.68;3.67;;;1.00;68.60;;;;;;7371335;19;20144;-44
2022/01/07 04:32:06;;;;;;;6.88;4.22;;;1.00;68.80;;;;;;7361352;19;20475;-44
2022/01/07 04:34:36;;;;;;;7.60;4.78;;;0.90;69.30;;;;;;7371280;19;20142;-44
2022/01/07 04:37:08;;;;;;;8.43;5.22;;;1.00;69.70;;;;;;7365872;19;20138;-44
2022/01/07 04:39:37;;;;;;;8.93;5.07;;;1.00;69.10;;;;;;7369792;19;20628;-44
2022/01/07 04:42:07;;;;;;;8.88;4.65;;;1.00;69.30;;;;;;7356874;19;20748;-44
2022/01/07 04:44:40;;;;;;;9.15;4.68;;;0.80;69.70;;;;;;7365113;19;20139;-44
2022/01/07 04:47:10;;;;;;;11.80;5.65;;;0.90;69.70;;;;;;7366286;19;20155;-44
2022/01/07 04:49:40;;;;;;;7.45;4.30;;;0.90;70.00;;;;;;7373237;19;20228;-43
2022/01/07 04:52:12;;;;;;;8.88;4.95;;;0.80;70.00;;;;;;7363357;19;20131;-44
2022/01/07 04:54:42;;;;;;;8.93;4.97;;;0.70;70.30;;;;;;7371001;19;20136;-44
2022/01/07 04:57:11;;;;;;;10.90;5.63;;;0.50;71.00;;;;;;7368912;19;20131;-44
2022/01/07 04:59:41;;;;;;;9.10;5.50;;;0.50;71.60;;;;;;7373716;19;20139;-44
2022/01/07 05:02:13;;;;;;;10.20;5.97;;;0.70;71.40;;;;;;7375558;19;20142;-44
2022/01/07 05:04:42;;;;;;;8.02;4.85;;;0.80;71.20;;;;;;7378531;19;20140;-44
2022/01/07 05:07:15;;;;;;;13.50;5.70;;;0.80;71.00;;;;;;7374024;19;20161;-44
2022/01/07 05:09:48;;;;;;;10.45;5.55;;;0.90;70.50;;;;;;7378697;19;20162;-50
2022/01/07 05:12:17;;;;;;;7.25;5.55;;;0.80;70.90;;;;;;7370246;19;20642;-48
2022/01/07 05:14:47;;;;;;;9.55;4.60;;;0.90;71.10;;;;;;7374531;19;20128;-48
2022/01/07 05:17:16;;;;;;;13.48;5.45;;;0.60;71.50;;;;;;7378535;19;20136;-48
2022/01/07 05:19:46;;;;;;;9.43;6.10;;;0.60;71.80;;;;;;7375978;19;20132;-49
2022/01/07 05:22:18;;;;;;;7.40;5.25;;;0.60;72.00;;;;;;7373119;19;20132;-49
2022/01/07 05:24:48;;;;;;;12.30;6.50;;;0.70;71.80;;;;;;7380896;19;20474;-48
2022/01/07 05:27:17;;;;;;;9.00;5.63;;;0.80;71.50;;;;;;7373911;19;20733;-50
2022/01/07 05:29:50;;;;;;;10.45;5.88;;;0.80;71.60;;;;;;7373913;19;20219;-48
2022/01/07 05:32:19;;;;;;;12.00;5.90;;;0.80;71.60;;;;;;7377519;19;20134;-48
2022/01/07 05:34:49;;;;;;;12.48;6.30;;;0.90;71.70;;;;;;7373995;19;20146;-48
2022/01/07 05:37:21;;;;;;;7.28;4.47;;;0.90;71.40;;;;;;7370084;19;20120;-48
2022/01/07 05:39:51;;;;;;;11.43;5.07;;;0.90;71.60;;;;;;7371528;19;20132;-44
2022/01/07 05:42:20;;;;;;;10.80;5.00;;;1.00;71.40;;;;;;7366441;19;20131;-44
2022/01/07 05:44:50;;;;;;;10.02;5.40;;;0.80;71.70;;;;;;7373953;19;20143;-44
2022/01/07 05:47:24;;;;;;;10.73;6.43;;;0.80;72.50;;;;;;7374907;19;20147;-44
2022/01/07 05:49:53;;;;;;;9.13;5.32;;;0.80;72.30;;;;;;7374010;19;20487;-44
2022/01/07 05:52:25;;;;;;;12.30;5.32;;;0.90;72.30;;;;;;7373174;19;20502;-44
2022/01/07 05:54:55;;;;;;;12.48;6.38;;;0.90;72.30;;;;;;7371441;19;21327;-44
2022/01/07 05:57:24;;;;;;;10.20;5.78;;;0.90;72.60;;;;;;7369036;19;20138;-44
2022/01/07 05:59:54;;;;;;;8.68;4.97;;;1.00;72.00;;;;;;7376253;19;20124;-44
2022/01/07 06:02:24;;;;;;;13.27;5.50;;;0.90;72.00;;;;;;7373232;19;20140;-44
2022/01/07 06:04:53;;;;;;;9.32;5.30;;;1.00;72.50;;;;;;7377033;19;20132;-44
2022/01/07 06:07:25;;;;;;;9.02;5.75;;;1.10;72.30;;;;;;7373795;19;20132;-44
2022/01/07 06:09:55;;;;;;;12.77;7.43;;;1.20;71.80;;;;;;7374759;19;20131;-44
2022/01/07 06:12:24;;;;;;;10.15;6.60;;;1.30;71.40;;;;;;7365769;19;21039;-44
2022/01/07 06:14:54;;;;;;;11.77;6.07;;;1.20;71.10;;;;;;7374315;19;20138;-44
2022/01/07 06:17:23;;;;;;;12.32;6.65;;;1.20;71.50;;;;;;7375286;19;20128;-44
2022/01/07 06:19:53;;;;;;;9.98;6.88;;;1.20;71.50;;;;;;7372541;19;20221;-44
2022/01/07 06:22:25;;;;;;;10.90;6.35;;;1.10;71.60;;;;;;7372793;19;20585;-44
2022/01/07 06:24:55;;;;;;;13.25;5.93;;;1.30;71.60;;;;;;7370174;19;20126;-43
2022/01/07 06:27:24;;;;;;;9.65;6.28;;;1.20;71.10;;;;;;7369437;19;20757;-44
2022/01/07 06:29:54;;;;;;;12.10;7.40;;;1.20;72.00;;;;;;7368664;19;20402;-44
2022/01/07 06:32:24;;;;;;;10.13;5.85;;;1.20;71.90;;;;;;7368542;19;20144;-45
2022/01/07 06:34:54;;;;;;;14.00;6.60;;;1.30;71.10;;;;;;7357762;19;20128;-44
2022/01/07 06:37:26;;;;;;;12.18;6.90;;;1.30;70.60;;;;;;7343369;19;20131;-44
2022/01/07 06:39:55;;;;;;;14.98;6.45;;;1.20;70.80;;;;;;7368521;19;20124;-44
2022/01/07 06:42:25;;;;;;;8.93;5.85;;;1.40;71.00;;;;;;7359692;19;20139;-44
2022/01/07 06:44:54;;;;;;;13.70;6.75;;;1.40;70.50;;;;;;7374710;19;20128;-44
2022/01/07 06:47:24;;;;;;;10.32;5.72;;;1.40;70.20;;;;;;7366078;19;20743;-44
2022/01/07 06:49:54;;;;;;;13.52;6.30;;;1.30;70.00;;;;;;7372714;19;20756;-46
2022/01/07 06:52:28;;;;;;;8.77;5.85;;;1.20;70.10;;;;;;7372506;19;20732;-44
2022/01/07 06:54:58;;;;;;;11.07;6.30;;;1.20;70.00;;;;;;7367208;19;20124;-44
2022/01/07 06:57:27;;;;;;;10.82;5.82;;;1.10;70.30;;;;;;7372624;19;20602;-44
2022/01/07 06:59:57;;;;;;;11.95;6.53;;;1.10;70.50;;;;;;7369600;19;20485;-44
2022/01/07 07:02:26;;;;;;;11.65;5.93;;;1.00;70.80;;;;;;7372416;19;20136;-44
2022/01/07 07:04:56;;;;;;;9.35;6.30;;;0.90;70.90;;;;;;7368690;19;20128;-44
2022/01/07 07:07:28;;;;;;;12.27;7.28;;;1.00;70.80;;;;;;7365115;19;20138;-43
2022/01/07 07:10:00;;;;;;;9.65;5.97;;;0.90;70.60;;;;;;7363972;19;20135;-47
2022/01/07 07:12:30;;;;;;;9.95;6.13;;;1.00;71.50;;;;;;7357189;19;20562;-47
2022/01/07 07:15:00;;;;;;;9.73;6.57;;;1.00;71.10;;;;;;7369455;19;20787;-46
2022/01/07 07:17:29;;;;;;;12.13;7.70;;;0.90;70.60;;;;;;7358871;19;20356;-49
2022/01/07 07:20:00;;;;;;;9.38;5.68;;;0.90;71.20;;;;;;7364209;19;20141;-47
2022/01/07 07:22:32;;;;;;;10.45;5.93;;;0.90;70.80;;;;;;7350186;19;20132;-47
2022/01/07 07:25:02;;;;;;;9.45;5.82;;;0.80;71.20;;;;;;7360350;19;20140;-49
2022/01/07 07:27:32;;;;;;;11.15;6.95;;;0.80;71.50;;;;;;7365442;19;20560;-47
2022/01/07 07:30:01;;;;;;;8.68;6.07;;;0.80;71.20;;;;;;7369349;19;20128;-46
2022/01/07 07:32:31;;;;;;;11.23;6.15;;;0.80;71.20;;;;;;7365414;19;20131;-48
2022/01/07 07:35:12;;;;;;;10.82;6.82;;;0.80;71.30;;;;;;7364302;19;20367;-48
2022/01/07 07:37:44;;;;;;;7.70;5.38;;;0.80;71.20;;;;;;7372473;19;20140;-47
2022/01/07 07:40:15;;;;;;;12.00;6.72;;;0.80;70.80;;;;;;7365825;19;20132;-43
2022/01/07 07:42:47;;;;;;;9.57;5.38;;;0.80;71.00;;;;;;7372946;19;20151;-44
2022/01/07 07:45:21;;;;;;;10.30;5.68;;;0.90;71.40;;;;;;7372442;19;20154;-44
2022/01/07 07:47:51;;;;;;;8.88;5.30;;;0.80;71.10;;;;;;7373437;19;20545;-42
2022/01/07 07:50:20;;;;;;;10.98;6.60;;;1.00;71.50;;;;;;7372467;19;20366;-43
2022/01/07 07:52:52;;;;;;;9.65;6.88;;;1.00;70.80;;;;;;7376059;19;20135;-43
2022/01/07 07:55:22;;;;;;;9.15;7.00;;;0.90;70.60;;;;;;7374164;19;20228;-43
2022/01/07 07:57:51;;;;;;;12.07;7.45;;;0.80;71.40;;;;;;7359076;19;20409;-43
2022/01/07 08:00:21;;;;;;;12.32;7.20;;;0.90;71.40;;;;;;7373728;19;20135;-43
2022/01/07 08:02:50;;;;;;;13.02;5.65;;;1.00;71.20;;;;;;7374609;19;20127;-43
2022/01/07 08:05:20;;;;;;;13.88;7.10;;;1.20;70.50;;;;;;7375815;19;20135;-43
2022/01/07 08:07:52;;;;;;;10.93;6.80;;;1.30;70.20;;;;;;7370424;19;20134;-43
2022/01/07 08:10:24;;;;;;;10.35;5.82;;;1.50;69.20;;;;;;7370937;19;20131;-43
2022/01/07 08:13:25;;;;;;;11.27;6.05;;;1.40;69.30;;;;;;7369435;19;20908;-44
2022/01/07 08:18:26;;;;;;;8.85;6.18;;;1.70;69.40;;;;;;7373798;19;20651;-44
2022/01/07 08:20:56;;;;;;;7.90;5.60;;;1.90;68.30;;;;;;7366073;19;20135;-44
2022/01/07 08:23:28;;;;;;;10.70;5.90;;;2.10;68.00;;;;;;7377448;19;20138;-44
2022/01/07 08:25:58;;;;;;;13.00;7.60;;;2.00;67.10;;;;;;7364057;19;20396;-43
2022/01/07 08:28:34;;;;;;;13.88;7.47;;;2.00;68.00;;;;;;7367989;19;20371;-44
2022/01/07 08:31:24;;;;;;;11.80;6.80;;;2.00;67.70;;;;;;7368339;19;20366;-42
2022/01/07 08:36:36;;;;;;;9.85;7.07;;;2.30;65.10;;;;;;7365506;19;20718;-45
2022/01/07 08:39:11;;;;;;;8.43;5.75;;;2.00;65.10;;;;;;7359052;19;20138;-44
2022/01/07 08:41:42;;;;;;;8.60;5.20;;;1.90;66.60;;;;;;7370226;19;20367;-44
2022/01/07 08:44:13;;;;;;;9.68;6.55;;;1.90;66.30;;;;;;7371783;19;20923;-44
2022/01/07 08:46:45;;;;;;;8.88;5.65;;;2.10;66.00;;;;;;7371456;19;20127;-44
2022/01/07 08:49:14;;;;;;;7.90;5.32;;;2.20;65.20;;;;;;7369551;19;20128;-44
2022/01/07 08:51:44;;;;;;;6.80;5.55;;;2.30;65.20;;;;;;7368804;19;20146;-49
2022/01/07 08:54:16;;;;;;;13.20;5.82;;;2.30;64.60;;;;;;7373524;19;20128;-48
2022/01/07 08:56:46;;;;;;;9.50;5.60;;;2.30;64.80;;;;;;7368124;19;20138;-48
2022/01/07 08:59:15;;;;;;;8.70;5.43;;;2.30;64.70;;;;;;7366085;19;20128;-48
2022/01/07 09:01:45;;;;;;;7.65;5.10;;;2.40;64.60;;;;;;7361798;19;20123;-48
2022/01/07 09:04:14;;;;;;;9.93;5.68;;;2.50;64.50;;;;;;7362847;19;20132;-49
2022/01/07 09:06:44;;;;;;;6.78;4.50;;;2.50;63.80;;;;;;7364572;19;20143;-47
2022/01/07 09:09:16;;;;;;;9.68;5.40;;;2.60;64.60;;;;;;7365254;19;20143;-47
2022/01/07 09:11:46;;;;;;;10.25;5.63;;;2.80;64.20;;;;;;7354671;19;20693;-47
2022/01/07 09:14:16;;;;;;;14.77;5.28;;;2.80;63.20;;;;;;7365067;19;20609;-49
2022/01/07 09:16:45;;;;;;;8.82;5.63;;;2.60;64.10;;;;;;7366516;19;20629;-45
2022/01/07 09:19:15;;;;;;;15.20;5.97;;;2.60;63.60;;;;;;7366005;19;20535;-48
2022/01/07 09:21:44;;;;;;;7.15;4.95;;;2.70;64.10;;;;;;7363718;19;20617;-45
2022/01/07 09:24:16;;;;;;;9.05;4.97;;;2.80;63.70;;;;;;7367816;19;20717;-45
2022/01/07 09:26:46;;;;;;;9.13;5.80;;;2.80;63.10;;;;;;7362319;19;20127;-45
2022/01/07 09:29:15;;;;;;;8.40;5.22;;;2.90;62.70;;;;;;7355357;19;20128;-45
2022/01/07 09:31:45;;;;;;;7.38;5.03;;;2.80;62.80;;;;;;7361072;19;20729;-45
2022/01/07 09:34:14;;;;;;;7.43;5.20;;;2.70;62.60;;;;;;7365158;19;20128;-45
2022/01/07 09:36:44;;;;;;;7.30;5.07;;;2.40;63.00;;;;;;7363115;19;20159;-45
2022/01/07 09:39:21;;;;;;;12.63;5.30;;;2.30;63.90;;;;;;7371783;19;20190;-44
2022/01/07 09:41:53;;;;;;;9.60;5.15;;;2.20;63.90;;;;;;7365166;19;20698;-44
2022/01/07 09:44:23;;;;;;;8.32;5.53;;;2.20;64.00;;;;;;7369913;19;20119;-45
2022/01/07 09:46:53;;;;;;;7.43;5.10;;;2.20;64.70;;;;;;7368052;19;20123;-44
2022/01/07 09:49:26;;;;;;;9.82;5.38;;;2.10;64.40;;;;;;7382232;19;20530;-45
2022/01/07 09:51:56;;;;;;;7.85;4.40;;;2.10;65.10;;;;;;7382468;19;20138;-48
2022/01/07 09:54:29;;;;;;;5.75;4.28;;;2.20;64.50;;;;;;7382090;19;20131;-49
2022/01/07 09:56:58;;;;;;;6.22;5.22;;;2.50;64.80;;;;;;7375166;19;20616;-49
2022/01/07 09:59:28;;;;;;;7.75;4.00;;;2.70;64.00;;;;;;7383105;19;20143;-49
2022/01/07 10:01:59;;;;;;;7.28;4.93;;;2.90;63.10;;;;;;7374779;19;20154;-49
2022/01/07 10:04:31;;;;;;;5.85;4.38;;;2.90;62.40;;;;;;7377804;19;20131;-49
2022/01/07 10:07:16;;;;;;;6.13;4.75;;;3.00;62.10;;;;;;7381674;19;20694;-48
2022/01/07 10:10:01;;;;;;;6.32;4.75;;;3.10;61.40;;;;;;7381352;19;20603;-48
2022/01/07 10:12:33;;;;;;;6.68;4.82;;;2.90;61.10;;;;;;7365093;19;20155;-48
2022/01/07 10:15:13;;;;;;;7.03;4.00;;;2.90;61.80;;;;;;7374582;19;20501;-48
2022/01/07 10:17:44;;;;;;;6.45;4.72;;;2.90;61.90;;;;;;7373806;19;20624;-48
2022/01/07 10:20:18;;;;;;;6.97;4.85;;;2.80;62.40;;;;;;7380501;19;20609;-48
2022/01/07 10:22:53;;;;;;;6.55;4.30;;;2.70;64.20;;;;;;7376755;19;20139;-48
2022/01/07 10:25:31;;;;;;;5.75;4.45;;;2.60;66.40;;;;;;7381632;19;20603;-50
2022/01/07 10:28:04;;;;;;;6.47;4.97;;;2.70;67.60;;;;;;7375618;19;20144;-48
2022/01/07 10:30:39;;;;;;;8.48;5.30;;;2.90;68.60;;;;;;7368465;19;20579;-48
2022/01/07 10:33:20;;;;;;;11.30;5.78;;;3.00;69.10;;;;;;7369882;19;20123;-44
2022/01/07 10:35:51;;;;;;;7.13;4.90;;;3.10;68.30;;;;;;7368827;19;20601;-44
2022/01/07 10:38:22;;;;;;;7.30;5.60;;;2.90;69.10;;;;;;7365315;19;20240;-44
2022/01/07 10:40:56;;;;;;;6.78;5.10;;;3.00;68.40;;;;;;7368452;19;20866;-44
2022/01/07 10:43:29;;;;;;;8.95;5.15;;;2.80;70.00;;;;;;7358051;19;20126;-43
2022/01/07 10:46:01;;;;;;;9.15;4.97;;;2.70;71.60;;;;;;7353404;19;20224;-43
2022/01/07 10:48:40;;;;;;;7.55;4.38;;;2.80;70.90;;;;;;7363305;19;20139;-43
2022/01/07 10:51:12;;;;;;;9.50;6.97;;;2.90;71.30;;;;;;7362790;19;20142;-43
2022/01/07 10:53:42;;;;;;;10.07;5.38;;;2.80;70.60;;;;;;7363621;19;20615;-43
2022/01/07 10:56:16;;;;;;;7.72;4.97;;;2.90;71.30;;;;;;7364096;19;20140;-43
2022/01/07 10:59:04;;;;;;;7.38;4.60;;;3.00;72.20;;;;;;7356084;19;20131;-43
2022/01/07 11:01:52;;;;;;;6.90;4.75;;;3.00;72.50;;;;;;7361750;19;20518;-43
2022/01/07 11:04:26;;;;;;;11.00;5.63;;;2.90;73.60;;;;;;7371501;19;20782;-43
2022/01/07 11:06:57;;;;;;;7.63;5.72;;;2.90;73.20;;;;;;7366607;19;20580;-43
2022/01/07 11:09:27;;;;;;;11.35;5.90;;;2.90;74.40;;;;;;7372181;19;20215;-43
2022/01/07 11:12:02;;;;;;;9.60;5.18;;;2.70;74.10;;;;;;7364684;19;20151;-43
2022/01/07 11:14:35;;;;;;;9.57;4.82;;;2.70;76.50;;;;;;7367966;19;21808;-43
2022/01/07 11:17:10;;;;;;;9.32;5.75;;;2.80;77.00;;;;;;7363119;19;20135;-44
2022/01/07 11:19:46;;;;;;;10.25;6.65;;;2.80;78.40;;;;;;7368773;19;20127;-43
2022/01/07 11:22:16;;;;;;;9.60;6.13;;;2.80;75.80;;;;;;7368215;19;20186;-43
2022/01/07 11:24:48;;;;;;;10.25;5.70;;;2.70;77.30;;;;;;7366014;19;20597;-43
2022/01/07 11:27:23;;;;;;;12.07;6.30;;;2.80;78.40;;;;;;7363301;19;20135;-43
2022/01/07 11:30:12;;;;;;;12.75;5.63;;;2.70;76.90;;;;;;7357664;19;20128;-33
2022/01/07 11:32:44;;;;;;;12.82;6.38;;;2.80;78.20;;;;;;7357917;19;20135;-33
2022/01/07 11:35:44;;;;;;;12.25;5.50;;;3.00;77.30;;;;;;7359406;19;20135;-32
2022/01/07 11:38:39;;;;;;;9.68;5.97;;;3.10;77.00;;;;;;7372532;19;20175;-33
2022/01/07 11:41:15;;;;;;;8.25;5.72;;;2.90;76.80;;;;;;7366896;19;20131;-33
2022/01/07 11:43:50;;;;;;;9.77;5.80;;;3.00;77.80;;;;;;7360684;19;20138;-33
2022/01/07 11:46:27;;;;;;;8.68;5.30;;;3.20;75.90;;;;;;7364655;19;20492;-32
2022/01/07 11:48:59;;;;;;;9.02;5.43;;;3.20;75.00;;;;;;7358194;19;20146;-34
2022/01/07 11:51:42;;;;;;;8.00;5.63;;;3.10;75.30;;;;;;7361484;19;20127;-33
2022/01/07 11:54:22;;;;;;;15.75;5.10;;;3.20;75.60;;;;;;7351661;19;20155;-33
2022/01/07 11:56:52;;;;;;;6.22;3.97;;;3.30;74.40;;;;;;7349743;19;20134;-33
2022/01/07 11:59:26;;;;;;;7.28;5.35;;;3.50;74.90;;;;;;7371307;19;20138;-33
2022/01/07 12:02:05;;;;;;;7.43;5.75;;;3.70;72.20;;;;;;7369878;19;20127;-34
2022/01/07 12:04:38;;;;;;;7.80;5.45;;;3.80;71.30;;;;;;7372350;19;20716;-33
2022/01/07 12:07:10;;;;;;;7.50;5.03;;;3.80;71.10;;;;;;7372769;19;20136;-33
2022/01/07 12:09:43;;;;;;;6.05;4.60;;;3.90;70.30;;;;;;7374128;19;20131;-33
2022/01/07 12:12:16;;;;;;;9.88;4.97;;;3.90;70.30;;;;;;7372050;19;20159;-33
2022/01/07 12:14:55;;;;;;;10.45;5.30;;;3.80;69.20;;;;;;7377588;19;20203;-33
2022/01/07 12:17:25;;;;;;;6.18;4.15;;;3.60;70.60;;;;;;7377128;19;20124;-34
2022/01/07 12:20:30;;;;;;;7.55;4.90;;;3.60;70.70;;;;;;7369042;19;20226;-34
2022/01/07 12:23:00;;;;;;;7.78;4.63;;;3.50;70.50;;;;;;7376528;19;20140;-33
2022/01/07 12:25:32;;;;;;;7.53;4.65;;;3.70;71.10;;;;;;7377890;19;20135;-33
2022/01/07 12:28:05;;;;;;;5.57;4.65;;;3.70;70.60;;;;;;7375352;19;20127;-34
2022/01/07 12:30:41;;;;;;;5.57;4.35;;;3.70;69.40;;;;;;7377081;19;20227;-33
2022/01/07 12:33:12;;;;;;;10.07;4.80;;;3.70;69.50;;;;;;7376292;19;20166;-33
2022/01/07 12:35:43;;;;;;;5.63;3.72;;;3.80;69.70;;;;;;7374799;19;20406;-33
2022/01/07 12:38:15;;;;;;;8.82;5.25;;;3.90;69.10;;;;;;7372855;19;20134;-33
2022/01/07 12:40:52;;;;;;;8.43;5.10;;;3.90;69.50;;;;;;7373183;19;20139;-38
2022/01/07 12:43:24;;;;;;;6.70;4.70;;;3.90;68.90;;;;;;7373669;19;21051;-33
2022/01/07 12:46:07;;;;;;;7.03;4.38;;;4.00;67.90;;;;;;7376752;19;20187;-33
2022/01/07 12:48:42;;;;;;;6.78;4.50;;;4.00;68.40;;;;;;7374871;19;20147;-33
2022/01/07 12:51:11;;;;;;;5.82;4.10;;;4.00;67.90;;;;;;7369829;19;20134;-33
2022/01/07 12:53:56;;;;;;;5.93;3.75;;;4.00;68.10;;;;;;7375561;19;20136;-33
2022/01/07 12:56:28;;;;;;;5.95;4.20;;;4.10;67.50;;;;;;7371950;19;20616;-33
2022/01/07 12:58:58;;;;;;;5.93;3.60;;;;;;;;;;7374860;19;20139;-33
2022/01/07 13:01:32;;;;;;;4.97;3.67;;;;;;;;;;7371631;19;20143;-33
2022/01/07 13:04:05;;;;;;;6.18;4.55;;;;;;;;;;7373619;19;20139;-33
2022/01/07 13:06:40;;;;;;;6.57;4.05;;;;;;;;;;7374885;19;20803;-33
2022/01/07 13:09:10;;;;;;;4.95;4.18;;;;;;;;;;7373293;19;20609;-33
2022/01/07 13:11:40;;;;;;;5.10;4.10;;;;;;;;;;7370581;19;20530;-44
2022/01/07 13:14:10;;;;;;;6.55;3.78;;;;;;;;;;7374798;19;20135;-44
2022/01/07 13:16:42;;;;;;;5.78;3.65;;;;;;;;;;7349861;19;20654;-44
2022/01/07 13:19:12;;;;;;;4.25;3.70;;;;;;;;;;7371221;19;20132;-44
2022/01/07 13:21:43;;;;;;;5.57;3.67;;;;;;;;;;7378587;19;20173;-44
2022/01/07 13:24:15;;;;;;;4.35;3.58;;;;;;;;;;7379546;19;20142;-44